createdAt,value
2017-06-14T00:02:15.102Z,95264.96
2017-06-14T00:04:43.000Z,95269.74
2017-06-14T00:07:10.807Z,95272.92
2017-06-14T00:09:38.442Z,95275.36
2017-06-14T00:12:05.985Z,95276.28
2017-06-14T00:14:33.537Z,95276.14
2017-06-14T00:17:01.133Z,95272.15
2017-06-14T00:19:28.671Z,95268.20
2017-06-14T00:21:56.199Z,95275.92
2017-06-14T00:24:23.779Z,95250.29
2017-06-14T00:26:51.569Z,95266.45
2017-06-14T00:29:19.457Z,95262.52
2017-06-14T00:31:47.062Z,95263.45
2017-06-14T00:34:14.879Z,95272.44
2017-06-14T00:36:42.413Z,95245.87
2017-06-14T00:39:10.813Z,95291.63
2017-06-14T00:41:38.354Z,95297.65
2017-06-14T00:44:05.922Z,95289.60
2017-06-14T00:46:33.638Z,95277.98
2017-06-14T00:49:01.173Z,95274.11
2017-06-14T00:51:28.737Z,95240.80
2017-06-14T00:53:56.350Z,95263.09
2017-06-14T00:56:23.918Z,95234.09
2017-06-14T00:58:51.469Z,95270.73
2017-06-14T01:01:19.056Z,95275.00
2017-06-14T01:03:46.605Z,95265.31
2017-06-14T01:06:14.170Z,95267.55
2017-06-14T01:08:41.748Z,95275.89
2017-06-14T01:11:09.370Z,95271.81
2017-06-14T01:13:36.951Z,95269.72
2017-06-14T01:16:04.539Z,95264.19
2017-06-14T01:18:32.082Z,95263.77
2017-06-14T01:20:59.670Z,95263.85
2017-06-14T01:23:27.286Z,95269.63
2017-06-14T01:25:54.866Z,95271.98
2017-06-14T01:28:22.422Z,95278.22
2017-06-14T01:30:50.044Z,95282.77
2017-06-14T01:33:17.665Z,95254.73
2017-06-14T01:35:45.269Z,95279.32
2017-06-14T01:38:12.849Z,95278.48
2017-06-14T01:40:40.448Z,95280.44
2017-06-14T01:43:08.016Z,95275.02
2017-06-14T01:45:35.651Z,95250.15
2017-06-14T01:48:03.226Z,95271.52
2017-06-14T01:50:30.857Z,95266.42
2017-06-14T01:52:58.462Z,95266.89
2017-06-14T01:55:26.002Z,95266.80
2017-06-14T01:57:53.558Z,95263.64
2017-06-14T02:00:21.154Z,95262.53
2017-06-14T02:02:48.763Z,95272.61
2017-06-14T02:05:16.318Z,95276.47
2017-06-14T02:07:43.896Z,95279.11
2017-06-14T02:10:11.434Z,95281.17
2017-06-14T02:12:38.989Z,95276.70
2017-06-14T02:15:06.568Z,95277.39
2017-06-14T02:17:34.105Z,95279.58
2017-06-14T02:20:01.646Z,95269.34
2017-06-14T02:22:29.252Z,95272.77
2017-06-14T02:24:56.825Z,95266.66
2017-06-14T02:27:24.363Z,95272.48
2017-06-14T02:29:51.942Z,95261.29
2017-06-14T02:32:19.581Z,95274.08
2017-06-14T02:34:47.117Z,95279.23
2017-06-14T02:37:14.684Z,95279.22
2017-06-14T02:39:42.285Z,95277.66
2017-06-14T02:42:09.818Z,95276.84
2017-06-14T02:44:37.362Z,95276.69
2017-06-14T02:47:04.945Z,95276.54
2017-06-14T02:49:32.486Z,95275.52
2017-06-14T02:52:00.078Z,95283.47
2017-06-14T02:54:27.652Z,95286.58
2017-06-14T02:56:55.193Z,95288.36
2017-06-14T02:59:22.730Z,95285.44
2017-06-14T03:01:50.318Z,95284.34
2017-06-14T03:04:17.860Z,95283.16
2017-06-14T03:06:47.050Z,95292.16
2017-06-14T03:09:14.643Z,95287.45
2017-06-14T03:11:42.185Z,95286.04
2017-06-14T03:14:09.722Z,95285.23
2017-06-14T03:16:37.314Z,95291.34
2017-06-14T03:19:04.916Z,95296.91
2017-06-14T03:21:32.452Z,95287.89
2017-06-14T03:24:00.021Z,95292.02
2017-06-14T03:26:27.594Z,95286.91
2017-06-14T03:28:55.170Z,95287.27
2017-06-14T03:31:22.796Z,95283.81
2017-06-14T03:33:50.384Z,95286.14
2017-06-14T03:36:17.946Z,95291.70
2017-06-14T03:38:45.542Z,95290.48
2017-06-14T03:41:13.085Z,95300.29
2017-06-14T03:43:40.659Z,95298.07
2017-06-14T03:46:08.289Z,95301.00
2017-06-14T03:48:35.828Z,95296.31
2017-06-14T03:51:03.369Z,95305.37
2017-06-14T03:53:30.973Z,95299.27
2017-06-14T03:55:58.545Z,95302.19
2017-06-14T03:58:26.322Z,95305.74
2017-06-14T04:00:53.949Z,95311.00
2017-06-14T04:03:21.498Z,95308.61
2017-06-14T04:05:49.045Z,95307.83
2017-06-14T04:08:16.642Z,95310.12
2017-06-14T04:10:44.410Z,95313.83
2017-06-14T04:13:11.949Z,95321.80
2017-06-14T04:15:39.557Z,95315.80
2017-06-14T04:18:07.091Z,95318.09
2017-06-14T04:20:34.648Z,95322.32
2017-06-14T04:23:02.250Z,95322.74
2017-06-14T04:25:29.801Z,95328.06
2017-06-14T04:27:57.363Z,95326.08
2017-06-14T04:30:24.962Z,95328.55
2017-06-14T04:32:52.507Z,95319.84
2017-06-14T04:35:20.033Z,95321.13
2017-06-14T04:37:47.681Z,95321.61
2017-06-14T04:40:15.234Z,95328.94
2017-06-14T04:42:42.783Z,95316.47
2017-06-14T04:45:10.369Z,95316.72
2017-06-14T04:47:37.905Z,95298.13
2017-06-14T04:50:05.782Z,95321.05
2017-06-14T04:52:33.359Z,95314.28
2017-06-14T04:55:00.912Z,95321.37
2017-06-14T04:57:28.453Z,95326.29
2017-06-14T04:59:56.033Z,95319.93
2017-06-14T05:02:23.609Z,95334.45
2017-06-14T05:04:51.146Z,95329.80
2017-06-14T05:07:18.682Z,95313.42
2017-06-14T05:09:46.290Z,95329.30
2017-06-14T05:12:13.841Z,95338.42
2017-06-14T05:14:41.391Z,95333.27
2017-06-14T05:17:08.965Z,95330.91
2017-06-14T05:19:36.496Z,95335.75
2017-06-14T05:22:04.037Z,95329.77
2017-06-14T05:24:31.605Z,95330.29
2017-06-14T05:26:59.394Z,95333.44
2017-06-14T05:29:26.937Z,95342.63
2017-06-14T05:31:54.513Z,95348.84
2017-06-14T05:34:22.050Z,95341.91
2017-06-14T05:36:49.608Z,95343.09
2017-06-14T05:39:17.189Z,95321.59
2017-06-14T05:41:44.727Z,95340.91
2017-06-14T05:44:12.270Z,95336.27
2017-06-14T05:46:39.854Z,95349.79
2017-06-14T05:49:07.385Z,95340.59
2017-06-14T05:51:34.917Z,95348.73
2017-06-14T05:54:02.474Z,95350.73
2017-06-14T05:56:30.014Z,95353.10
2017-06-14T05:58:57.543Z,95341.95
2017-06-14T06:01:25.117Z,95341.91
2017-06-14T06:03:52.658Z,95342.85
2017-06-14T06:06:20.202Z,95352.72
2017-06-14T06:08:47.787Z,95353.15
2017-06-14T06:11:15.331Z,95347.51
2017-06-14T06:13:42.866Z,95350.20
2017-06-14T06:16:10.438Z,95349.66
2017-06-14T06:18:37.986Z,95355.98
2017-06-14T06:21:05.516Z,95344.70
2017-06-14T06:23:33.089Z,95345.92
2017-06-14T06:26:00.642Z,95340.56
2017-06-14T06:28:28.209Z,95342.09
2017-06-14T06:30:55.885Z,95341.36
2017-06-14T06:33:23.428Z,95342.03
2017-06-14T06:35:50.965Z,95341.17
2017-06-14T06:38:18.533Z,95331.99
2017-06-14T06:40:46.074Z,95339.08
2017-06-14T06:43:13.621Z,95342.06
2017-06-14T06:45:41.210Z,95344.48
2017-06-14T06:48:08.738Z,95336.25
2017-06-14T06:50:36.270Z,95338.30
2017-06-14T06:53:03.852Z,95333.45
2017-06-14T06:55:31.394Z,95336.87
2017-06-14T06:57:58.924Z,95321.30
2017-06-14T07:00:26.623Z,95332.39
2017-06-14T07:02:54.154Z,95329.15
2017-06-14T07:05:21.682Z,95329.86
2017-06-14T07:07:49.253Z,95336.72
2017-06-14T07:10:16.780Z,95333.94
2017-06-14T07:12:44.318Z,95337.32
2017-06-14T07:15:11.890Z,95335.64
2017-06-14T07:17:39.425Z,95327.65
2017-06-14T07:20:06.964Z,95321.16
2017-06-14T07:22:34.550Z,95325.24
2017-06-14T07:25:02.075Z,95319.30
2017-06-14T07:27:29.602Z,95318.04
2017-06-14T07:29:57.169Z,95311.41
2017-06-14T07:32:24.734Z,95316.54
2017-06-14T07:34:52.278Z,95319.64
2017-06-14T07:37:19.810Z,95329.63
2017-06-14T07:39:47.384Z,95325.19
2017-06-14T07:42:14.919Z,95319.17
2017-06-14T07:44:42.456Z,95316.06
2017-06-14T07:47:10.017Z,95309.38
2017-06-14T07:49:37.549Z,95310.73
2017-06-14T07:52:05.093Z,95310.30
2017-06-14T07:54:32.666Z,95310.51
2017-06-14T07:57:00.199Z,95309.06
2017-06-14T07:59:27.730Z,95305.50
2017-06-14T08:01:55.299Z,95299.75
2017-06-14T08:04:22.827Z,95300.99
2017-06-14T08:06:50.355Z,95296.34
2017-06-14T08:09:17.925Z,95301.19
2017-06-14T08:11:45.462Z,95298.47
2017-06-14T08:14:12.995Z,95305.52
2017-06-14T08:16:40.569Z,95301.39
2017-06-14T08:19:08.102Z,95295.59
2017-06-14T08:21:35.635Z,95301.83
2017-06-14T08:24:03.205Z,95303.99
2017-06-14T08:26:30.733Z,95304.80
2017-06-14T08:28:58.270Z,95301.67
2017-06-14T08:31:25.835Z,95296.73
2017-06-14T08:33:53.372Z,95293.84
2017-06-14T08:36:20.902Z,95290.02
2017-06-14T08:38:48.470Z,95299.39
2017-06-14T08:41:16.003Z,95295.73
2017-06-14T08:43:43.541Z,95295.28
2017-06-14T08:46:11.109Z,95290.56
2017-06-14T08:48:38.632Z,95290.85
2017-06-14T08:51:06.165Z,95299.72
2017-06-14T08:53:33.733Z,95290.96
2017-06-14T08:56:01.306Z,95291.95
2017-06-14T08:58:28.829Z,95291.93
2017-06-14T09:00:56.389Z,95292.88
2017-06-14T09:03:23.914Z,95290.02
2017-06-14T09:05:51.461Z,95290.16
2017-06-14T09:08:19.021Z,95294.00
2017-06-14T09:10:46.545Z,95297.55
2017-06-14T09:13:14.079Z,95278.70
2017-06-14T09:15:41.647Z,95290.94
2017-06-14T09:18:09.189Z,95291.41
2017-06-14T09:20:36.750Z,95292.86
2017-06-14T09:23:04.313Z,95291.53
2017-06-14T09:25:31.850Z,95292.27
2017-06-14T09:27:59.398Z,95275.37
2017-06-14T09:30:26.984Z,95280.73
2017-06-14T09:32:54.518Z,95281.69
2017-06-14T09:35:22.054Z,95288.00
2017-06-14T09:37:49.632Z,95275.66
2017-06-14T09:40:17.161Z,95278.66
2017-06-14T09:42:44.694Z,95274.34
2017-06-14T09:45:12.268Z,95267.97
2017-06-14T09:47:39.805Z,95274.69
2017-06-14T09:50:07.334Z,95273.73
2017-06-14T09:52:34.913Z,95272.56
2017-06-14T09:55:02.449Z,95274.14
2017-06-14T09:57:29.977Z,95275.58
2017-06-14T09:59:57.537Z,95277.77
2017-06-14T10:02:25.126Z,95276.73
2017-06-14T10:04:52.652Z,95274.95
2017-06-14T10:07:20.183Z,95276.88
2017-06-14T10:09:47.758Z,95276.61
2017-06-14T10:12:15.303Z,95280.94
2017-06-14T10:14:42.834Z,95274.80
2017-06-14T10:17:10.470Z,95270.09
2017-06-14T10:19:38.237Z,95273.03
2017-06-14T10:22:05.834Z,95273.88
2017-06-14T10:24:33.404Z,95273.00
2017-06-14T10:27:00.942Z,95264.11
2017-06-14T10:29:28.492Z,95268.87
2017-06-14T10:31:56.050Z,95269.48
2017-06-14T10:34:23.585Z,95269.79
2017-06-14T10:36:51.132Z,95267.53
2017-06-14T10:39:18.696Z,95276.41
2017-06-14T10:41:46.217Z,95267.77
2017-06-14T10:44:13.749Z,95266.91
2017-06-14T10:46:41.331Z,95265.38
2017-06-14T10:49:08.865Z,95268.11
2017-06-14T10:51:36.413Z,95266.73
2017-06-14T10:54:04.000Z,95271.09
2017-06-14T10:56:31.825Z,95269.55
2017-06-14T10:59:02.244Z,95264.95
2017-06-14T11:01:30.282Z,95266.21
2017-06-14T11:03:57.830Z,95261.34
2017-06-14T11:06:25.930Z,95273.27
2017-06-14T11:08:53.493Z,95275.70
2017-06-14T11:11:21.025Z,95272.31
2017-06-14T11:13:48.553Z,95274.34
2017-06-14T11:16:16.161Z,95269.42
2017-06-14T11:18:43.695Z,95256.59
2017-06-14T11:21:11.600Z,95267.53
2017-06-14T11:23:39.164Z,95263.34
2017-06-14T11:26:06.693Z,95259.33
2017-06-14T11:28:34.237Z,95253.28
2017-06-14T11:31:02.062Z,95247.82
2017-06-14T11:33:29.618Z,95246.28
2017-06-14T11:35:57.162Z,95235.98
2017-06-14T11:38:24.761Z,95244.97
2017-06-14T11:40:52.293Z,95237.32
2017-06-14T11:43:19.829Z,95229.50
2017-06-14T11:45:47.749Z,95230.95
2017-06-14T11:48:15.310Z,95231.73
2017-06-14T11:50:42.841Z,95229.28
2017-06-14T11:53:10.410Z,95224.41
2017-06-14T11:55:38.223Z,95229.41
2017-06-14T11:58:05.814Z,95233.38
2017-06-14T12:00:33.389Z,95235.56
2017-06-14T12:03:00.922Z,95233.31
2017-06-14T12:05:28.801Z,95236.72
2017-06-14T12:07:56.370Z,95227.83
2017-06-14T12:10:23.897Z,95232.06
2017-06-14T12:12:52.306Z,95232.66
2017-06-14T12:15:19.876Z,95228.09
2017-06-14T12:17:47.405Z,95230.92
2017-06-14T12:20:16.250Z,95229.50
2017-06-14T12:22:44.355Z,95228.93
2017-06-14T12:25:11.894Z,95230.70
2017-06-14T12:27:39.419Z,95224.19
2017-06-14T12:30:08.237Z,95221.66
2017-06-14T12:32:36.042Z,95222.66
2017-06-14T12:35:03.571Z,95218.62
2017-06-14T12:37:31.174Z,95218.81
2017-06-14T12:39:58.955Z,95214.89
2017-06-14T12:42:26.530Z,95213.50
2017-06-14T12:44:54.153Z,95220.09
2017-06-14T12:47:21.808Z,95211.67
2017-06-14T12:49:49.582Z,95211.14
2017-06-14T12:52:17.216Z,95204.53
2017-06-14T12:54:45.021Z,95204.81
2017-06-14T12:57:12.634Z,95201.74
2017-06-14T12:59:40.986Z,95201.88
2017-06-14T13:02:08.561Z,95201.24
2017-06-14T13:04:36.097Z,95204.71
2017-06-14T13:07:03.934Z,95221.09
2017-06-14T13:09:31.577Z,95216.90
2017-06-14T13:11:59.126Z,95220.78
2017-06-14T13:14:27.746Z,95232.43
2017-06-14T13:16:57.011Z,95226.92
2017-06-14T13:19:24.933Z,95225.20
2017-06-14T13:21:52.533Z,95225.39
2017-06-14T13:24:20.103Z,95229.17
2017-06-14T13:26:48.062Z,95270.68
2017-06-14T13:29:15.675Z,95231.14
2017-06-14T13:31:43.577Z,95221.45
2017-06-14T13:34:11.110Z,95222.55
2017-06-14T13:36:38.872Z,95230.46
2017-06-14T13:56:56.229Z,95226.70
2017-06-14T13:59:24.353Z,95217.52
2017-06-14T14:01:51.947Z,95211.73
2017-06-14T14:04:22.313Z,95205.48
2017-06-14T14:06:50.340Z,95207.24
2017-06-14T14:09:18.537Z,95186.11
2017-06-14T14:11:46.276Z,95208.36
2017-06-14T14:14:14.125Z,95205.02
2017-06-14T14:16:41.734Z,95208.20
2017-06-14T14:19:09.279Z,95209.59
2017-06-14T14:21:37.045Z,95210.42
2017-06-14T14:24:04.641Z,95208.02
2017-06-14T14:26:32.206Z,95216.36
2017-06-14T14:28:59.744Z,95213.97
2017-06-14T14:31:27.327Z,95210.73
2017-06-14T14:33:54.862Z,95208.23
2017-06-14T14:36:22.459Z,95218.86
2017-06-14T14:38:50.030Z,95249.09
2017-06-14T14:41:17.846Z,95216.56
2017-06-14T14:43:45.406Z,95216.00
2017-06-14T14:46:13.011Z,95211.48
2017-06-14T14:48:40.887Z,95217.08
2017-06-14T14:51:08.419Z,95210.61
2017-06-14T14:53:36.024Z,95214.18
2017-06-14T14:56:03.937Z,95218.44
2017-06-14T14:58:31.465Z,95217.78
2017-06-14T15:00:59.264Z,95219.73
2017-06-14T15:03:27.077Z,95212.95
2017-06-14T15:05:54.617Z,95207.26
2017-06-14T15:08:22.178Z,95204.41
2017-06-14T15:10:49.730Z,95210.80
2017-06-14T15:13:17.303Z,95210.19
2017-06-14T15:15:45.700Z,95209.95
2017-06-14T15:18:13.258Z,95205.50
2017-06-14T15:20:40.841Z,95197.27
2017-06-14T15:23:08.952Z,95202.94
2017-06-14T15:25:37.529Z,95206.31
2017-06-14T15:28:05.426Z,95200.20
2017-06-14T15:30:33.950Z,95205.36
2017-06-14T15:33:01.876Z,95210.62
2017-06-14T15:35:29.663Z,95216.33
2017-06-14T15:37:57.308Z,95212.70
2017-06-14T15:40:25.086Z,95174.43
2017-06-14T15:42:52.877Z,95217.09
2017-06-14T15:45:20.485Z,95222.77
2017-06-14T15:47:49.006Z,95227.59
2017-06-14T15:50:16.567Z,95235.59
2017-06-14T15:52:44.169Z,95233.16
2017-06-14T15:55:11.745Z,95233.82
2017-06-14T15:57:39.327Z,95240.75
2017-06-14T16:00:07.202Z,95244.28
2017-06-14T16:02:35.005Z,95250.94
2017-06-14T16:05:02.605Z,95243.08
2017-06-14T16:07:30.420Z,95239.30
2017-06-14T16:09:57.983Z,95232.95
2017-06-14T16:12:25.579Z,95239.14
2017-06-14T16:14:53.418Z,95248.34
2017-06-14T16:17:21.212Z,95255.16
2017-06-14T16:19:48.818Z,95251.78
2017-06-14T16:22:16.413Z,95262.14
2017-06-14T16:24:44.178Z,95260.27
2017-06-14T16:27:11.798Z,95259.23
2017-06-14T16:29:40.254Z,95263.81
2017-06-14T16:32:08.942Z,95254.10
2017-06-14T16:34:36.790Z,95260.87
2017-06-14T16:37:04.405Z,95256.16
2017-06-14T16:39:32.614Z,95247.72
2017-06-14T16:42:00.194Z,95235.88
2017-06-14T16:44:27.765Z,95239.02
2017-06-14T16:46:55.373Z,95249.30
2017-06-14T16:49:23.045Z,95252.66
2017-06-14T16:51:51.181Z,95239.65
2017-06-14T16:54:18.784Z,95237.75
2017-06-14T16:56:46.390Z,95245.18
2017-06-14T16:59:14.189Z,95240.30
2017-06-14T17:01:41.787Z,95247.60
2017-06-14T17:04:10.037Z,95239.79
2017-06-14T17:06:55.891Z,95228.72
2017-06-14T17:09:31.127Z,95240.22
2017-06-14T17:11:59.918Z,95218.39
2017-06-14T17:14:31.093Z,95236.13
2017-06-14T17:16:58.922Z,95238.41
2017-06-14T17:19:30.788Z,95236.81
2017-06-14T17:29:19.658Z,95223.14
2017-06-14T17:31:47.250Z,95236.42
2017-06-14T17:34:14.850Z,95241.85
2017-06-14T17:36:42.385Z,95251.08
2017-06-14T17:39:10.053Z,95233.13
2017-06-14T17:41:37.628Z,95243.78
2017-06-14T17:44:05.173Z,95242.83
2017-06-14T17:46:32.770Z,95243.69
2017-06-14T17:49:00.302Z,95254.21
2017-06-14T17:51:27.852Z,95249.79
2017-06-14T17:53:55.592Z,95242.55
2017-06-14T17:56:23.131Z,95252.13
2017-06-14T17:58:51.298Z,95249.71
2017-06-14T18:01:19.245Z,95262.13
2017-06-14T18:03:47.122Z,95266.51
2017-06-14T18:06:15.639Z,95260.94
2017-06-14T18:08:43.922Z,95262.03
2017-06-14T18:11:11.702Z,95272.75
2017-06-14T18:13:40.261Z,95280.20
2017-06-14T18:16:08.828Z,95282.16
2017-06-14T18:18:36.521Z,95286.03
2017-06-14T18:21:04.319Z,95271.04
2017-06-14T18:23:32.057Z,95292.62
2017-06-14T18:26:00.364Z,95299.89
2017-06-14T18:28:29.190Z,95292.78
2017-06-14T18:30:56.813Z,95299.11
2017-06-14T18:33:24.442Z,95281.39
2017-06-14T18:35:53.334Z,95308.05
2017-06-14T18:38:22.074Z,95314.27
2017-06-14T18:40:50.705Z,95313.64
2017-06-14T18:43:18.385Z,95318.06
2017-06-14T18:45:46.062Z,95314.84
2017-06-14T18:48:13.730Z,95317.97
2017-06-14T18:50:41.325Z,95319.95
2017-06-14T18:53:09.552Z,95324.19
2017-06-14T18:55:37.318Z,95323.50
2017-06-14T18:58:19.236Z,95330.05
2017-06-14T19:00:47.982Z,95323.27
2017-06-14T19:03:15.772Z,95332.45
2017-06-14T19:05:43.725Z,95332.05
2017-06-14T19:08:11.380Z,95344.84
2017-06-14T19:10:50.248Z,95341.41
2017-06-14T19:13:26.038Z,95376.84
2017-06-14T19:15:54.957Z,95348.17
2017-06-14T19:18:22.849Z,95351.30
2017-06-14T19:20:50.525Z,95344.00
2017-06-14T19:23:18.274Z,95356.06
2017-06-14T19:25:48.764Z,95355.19
2017-06-14T19:28:16.545Z,95356.20
2017-06-14T19:30:44.145Z,95362.77
2017-06-14T19:33:11.722Z,95366.03
2017-06-14T19:35:39.281Z,95360.98
2017-06-14T19:38:06.854Z,95364.72
2017-06-14T19:40:55.390Z,95368.46
2017-06-14T19:43:34.397Z,95369.38
2017-06-14T19:46:15.524Z,95370.77
2017-06-14T19:48:43.295Z,95374.58
2017-06-14T19:53:50.742Z,95385.58
2017-06-14T19:56:18.277Z,95392.67
2017-06-14T19:59:04.181Z,95389.59
2017-06-14T20:01:34.202Z,95391.59
2017-06-14T20:04:02.005Z,95385.13
2017-06-14T20:06:29.546Z,95390.20
2017-06-14T20:08:57.113Z,95387.25
2017-06-14T20:11:38.338Z,95389.68
2017-06-14T20:14:10.797Z,95394.83
2017-06-14T20:16:39.418Z,95385.64
2017-06-14T20:19:08.281Z,95394.84
2017-06-14T20:21:56.389Z,95389.30
2017-06-14T20:24:24.129Z,95396.87
2017-06-14T20:27:01.591Z,95391.42
2017-06-14T20:29:47.129Z,95386.51
2017-06-14T20:32:15.512Z,95398.88
2017-06-14T20:34:43.053Z,95387.23
2017-06-14T20:37:10.588Z,95385.75
2017-06-14T20:39:38.407Z,95394.19
2017-06-14T20:42:06.196Z,95396.74
2017-06-14T20:44:33.741Z,95395.55
2017-06-14T20:47:01.325Z,95324.00
2017-06-14T20:49:28.880Z,95398.50
2017-06-14T20:51:56.701Z,95402.03
2017-06-14T20:54:24.264Z,95409.23
2017-06-14T20:56:51.805Z,95404.84
2017-06-14T20:59:19.342Z,95410.83
2017-06-14T21:01:46.950Z,95412.55
2017-06-14T21:04:14.494Z,95412.19
2017-06-14T21:06:42.122Z,95409.62
2017-06-14T21:09:10.890Z,95410.69
2017-06-14T21:11:38.446Z,95420.50
2017-06-14T21:14:07.173Z,95418.67
2017-06-14T21:16:35.476Z,95413.45
2017-06-14T21:19:03.012Z,95408.95
2017-06-14T21:21:30.544Z,95441.16
2017-06-14T21:23:58.144Z,95418.67
2017-06-14T21:26:25.766Z,95420.16
2017-06-14T21:28:53.313Z,95418.64
2017-06-14T21:31:20.883Z,95415.66
2017-06-14T21:33:48.446Z,95418.26
2017-06-14T21:36:16.021Z,95415.10
2017-06-14T21:38:43.589Z,95416.78
2017-06-14T21:41:11.197Z,95418.12
2017-06-14T21:43:38.770Z,95411.70
2017-06-14T21:46:06.337Z,95411.66
2017-06-14T21:48:33.894Z,95414.48
2017-06-14T21:51:01.487Z,95415.42
2017-06-14T21:53:29.115Z,95413.80
2017-06-14T21:55:56.752Z,95423.22
2017-06-14T21:58:24.427Z,95416.54
2017-06-14T22:00:52.109Z,95421.30
2017-06-14T22:03:19.677Z,95401.16
2017-06-14T22:05:47.261Z,95427.11
2017-06-14T22:08:14.955Z,95423.72
2017-06-14T22:10:42.560Z,95422.48
2017-06-14T22:13:10.138Z,95428.57
2017-06-14T22:15:38.002Z,95425.63
2017-06-14T22:18:05.623Z,95426.25
2017-06-14T22:20:33.192Z,95419.00
2017-06-14T22:23:00.872Z,95412.45
2017-06-14T22:25:28.412Z,95412.19
2017-06-14T22:27:55.950Z,95410.98
2017-06-14T22:30:23.683Z,95408.81
2017-06-14T22:32:51.243Z,95416.23
2017-06-14T22:35:18.778Z,95407.29
2017-06-14T22:37:46.376Z,95416.56
2017-06-14T22:40:14.026Z,95419.67
2017-06-14T22:42:41.656Z,95411.77
2017-06-14T22:45:09.371Z,95429.80
2017-06-14T22:47:37.013Z,95430.16
2017-06-14T22:50:04.542Z,95430.63
2017-06-14T22:52:32.113Z,95430.83
2017-06-14T22:54:59.658Z,95437.45
2017-06-14T22:57:27.196Z,95439.88
2017-06-14T22:59:54.762Z,95442.97
2017-06-14T23:02:22.352Z,95440.85
2017-06-14T23:04:49.894Z,95438.52
2017-06-14T23:07:17.461Z,95439.91
2017-06-14T23:09:45.902Z,95440.63
2017-06-14T23:12:13.476Z,95445.98
2017-06-14T23:14:41.030Z,95447.03
2017-06-14T23:17:08.594Z,95452.52
2017-06-14T23:19:36.127Z,95450.47
2017-06-14T23:22:03.681Z,95448.07
2017-06-14T23:24:31.250Z,95451.48
2017-06-14T23:26:58.793Z,95453.07
2017-06-14T23:29:26.329Z,95451.18
2017-06-14T23:31:53.896Z,95456.57
2017-06-14T23:34:21.421Z,95411.98
2017-06-14T23:36:48.958Z,95449.33
2017-06-14T23:39:16.527Z,95453.07
2017-06-14T23:41:44.061Z,95456.57
2017-06-14T23:44:11.610Z,95455.84
2017-06-14T23:46:39.252Z,95462.20
2017-06-14T23:49:07.644Z,95470.01
2017-06-14T23:51:35.231Z,95464.69
2017-06-14T23:54:02.804Z,95467.24
2017-06-14T23:56:30.346Z,95465.81
2017-06-14T23:58:57.881Z,95468.97
